Aérodrome :
LOGIN :

S'inscrire | Disclaimer

   EN    FR    IT 

 










Légende :    VFR   VFR Marginal   IFR   IFR Intensif   IFR Très Intensif
Visi : 
Plafond : 
>= 8 km
>= 3000ft
5 à 8 km
1000 à 3000 ft
1500m à 5 km
500 à 1000 ft
800 à 1500m
200 à 500 ft
< 800m
< 200 ft
Symboles :   Orages  Brouillard  Fortes neiges  Fortes précipitations  Vent > 20 kt
SIGMETs :   Divers  Orages  Givrage  Turbulence  Onde Orograph.  Cendres Volcan.






- Altitude de l'aérodrome : 1197 ft
- Code IATA : SPM


ETAD - Spangdahlem Ab

DERNIER METAR :
  • 010456Z AUTO 00000KT 9999 CLR M03/M08 A3019 RMK AO2 SLP231 T10291078 $

METARs EXPIRÉS :
  • 010356Z AUTO 00000KT 9999 CLR M02/M08 A3019 RMK AO2 SLP229 T10241081 $
  • 010256Z AUTO 00000KT 9999 CLR M01/M08 A3020 RMK AO2 SLP233 T10151081 57011 $

TAF TAF ETAD
Valide du 31 à 17h jusqu'au 01 à 23h UTC


311700Z 3117/0123 05009KT 9999 FEW030 QNH3019INS
BECMG 0107/0108 06010KT 9999 SKC QNH3010INS
BECMG 0121/0122 04006KT 9999 SCT030 QNH3007INS TX07/0115Z TNM03/0106Z LAST NO AMDS AFT 3118 NEXT 0109



MET'MAP, la Météo Aéronautique d'un coup d'oeil ! - Copyright ORBIFLY Décembre 2007 - Disclaimer

ORBIFLY MET'MAP TEAM :

Programmation & Développement : Alexandra Zaïnal
Sur une idée originale de : Baudouin d'Aumeries
Assistance à la programmation : Marc-Olivier Méhu
Soutien technique & logistique : Manuel Goepfert

Contact : metmap@orbifly.com




SOURCES & CREDITS :

   NOAA